createdAt,value
2022-08-08T00:00:53.091Z,3.78
2022-08-08T00:07:23.297Z,4.35
2022-08-08T00:14:57.220Z,4.00
2022-08-08T00:21:43.939Z,3.70
2022-08-08T00:28:37.896Z,4.18
2022-08-08T00:35:38.110Z,3.90
2022-08-08T00:43:05.988Z,4.10
2022-08-08T00:51:07.052Z,4.10
2022-08-08T00:58:43.742Z,4.22
2022-08-08T01:06:30.361Z,4.00
2022-08-08T01:13:52.832Z,3.80
2022-08-08T01:21:07.707Z,4.10
2022-08-08T01:28:36.879Z,3.90
2022-08-08T01:36:27.022Z,4.05
2022-08-08T01:43:38.504Z,3.92
2022-08-08T01:50:43.788Z,4.28
2022-08-08T01:58:11.101Z,3.88
2022-08-08T02:05:07.988Z,4.10
2022-08-08T02:11:59.735Z,4.10
2022-08-08T02:19:10.069Z,4.00
2022-08-08T02:26:15.906Z,4.38
2022-08-08T02:33:21.759Z,4.50
2022-08-08T02:40:21.300Z,3.90
2022-08-08T03:01:47.256Z,4.10
2022-08-08T03:09:49.152Z,4.35
2022-08-08T03:16:50.988Z,4.20
2022-08-08T03:23:57.442Z,4.10
2022-08-08T03:30:48.944Z,4.20
2022-08-08T03:46:03.351Z,4.50
2022-08-08T03:52:13.235Z,4.68
2022-08-08T03:59:01.746Z,4.57
2022-08-08T04:05:50.473Z,4.55
2022-08-08T04:12:41.433Z,4.35
2022-08-08T04:19:26.993Z,4.28
2022-08-08T04:26:20.072Z,4.85
2022-08-08T04:33:12.464Z,4.40
2022-08-08T04:40:08.196Z,4.45
2022-08-08T04:47:11.912Z,4.30
2022-08-08T04:54:40.269Z,4.25
2022-08-08T05:01:11.272Z,4.60
2022-08-08T05:08:05.749Z,4.60
2022-08-08T05:14:52.340Z,4.75
2022-08-08T05:21:43.712Z,4.55
2022-08-08T05:28:55.963Z,4.60
2022-08-08T05:35:45.922Z,4.70
2022-08-08T05:42:44.650Z,4.57
2022-08-08T05:49:33.966Z,4.40
2022-08-08T05:56:26.178Z,4.70
2022-08-08T06:03:24.789Z,4.82
2022-08-08T06:10:24.629Z,4.10
2022-08-08T06:17:19.576Z,4.20
2022-08-08T06:24:13.709Z,4.30
2022-08-08T06:31:15.927Z,3.95
2022-08-08T06:38:09.276Z,4.30
2022-08-08T06:45:00.440Z,4.38
2022-08-08T06:51:57.744Z,4.20
2022-08-08T06:58:45.005Z,4.30
2022-08-08T07:05:40.065Z,4.40
2022-08-08T07:12:49.510Z,4.05
2022-08-08T07:19:47.393Z,4.37
2022-08-08T07:26:37.912Z,4.20
2022-08-08T07:33:37.947Z,4.45
2022-08-08T07:40:35.872Z,4.43
2022-08-08T07:47:38.466Z,3.83
2022-08-08T07:54:35.745Z,4.22
2022-08-08T08:02:35.445Z,4.10
2022-08-08T08:08:52.169Z,4.57
2022-08-08T08:22:34.032Z,3.90
2022-08-08T08:29:22.823Z,3.85
2022-08-08T08:36:20.375Z,3.72
2022-08-08T08:43:16.966Z,4.20
2022-08-08T08:50:04.571Z,3.90
2022-08-08T08:56:53.568Z,3.85
2022-08-08T09:03:47.297Z,3.97
2022-08-08T09:10:42.602Z,4.00
2022-08-08T09:17:41.877Z,4.30
2022-08-08T09:24:43.101Z,3.75
2022-08-08T09:31:56.419Z,3.92
2022-08-08T09:38:58.032Z,3.53
2022-08-08T09:45:54.543Z,4.00
2022-08-08T09:52:58.459Z,3.47
2022-08-08T10:00:28.870Z,3.60
2022-08-08T10:07:07.197Z,3.60
2022-08-08T10:13:59.620Z,4.03
2022-08-08T10:21:00.570Z,3.65
2022-08-08T10:27:57.642Z,3.55
2022-08-08T10:35:00.353Z,3.33
2022-08-08T10:42:14.913Z,3.30
2022-08-08T10:49:03.239Z,3.22
2022-08-08T10:55:48.963Z,3.60
2022-08-08T11:02:38.665Z,3.63
2022-08-08T11:09:27.657Z,3.30
2022-08-08T11:16:33.081Z,3.28
2022-08-08T11:23:25.361Z,3.70
2022-08-08T11:30:24.436Z,3.85
2022-08-08T11:37:15.160Z,3.72
2022-08-08T11:44:05.484Z,3.45
2022-08-08T11:50:53.555Z,3.20
2022-08-08T11:57:40.905Z,3.38
2022-08-08T12:04:29.351Z,2.92
2022-08-08T12:11:27.159Z,3.20
2022-08-08T12:18:24.502Z,3.40
2022-08-08T12:25:29.622Z,3.72
2022-08-08T12:32:31.302Z,3.40
2022-08-08T12:39:17.310Z,3.28
2022-08-08T12:46:19.266Z,3.22
2022-08-08T12:53:29.996Z,3.40
2022-08-08T13:00:20.344Z,3.22
2022-08-08T13:07:16.992Z,3.50
2022-08-08T13:14:11.346Z,3.40
2022-08-08T13:20:58.320Z,3.55
2022-08-08T13:27:48.719Z,3.63
2022-08-08T13:34:43.201Z,3.10
2022-08-08T13:41:39.554Z,3.50
2022-08-08T13:49:12.283Z,3.35
2022-08-08T13:56:02.700Z,3.50
2022-08-08T14:02:48.580Z,3.50
2022-08-08T14:10:04.603Z,3.30
2022-08-08T14:16:52.929Z,3.60
2022-08-08T14:24:06.573Z,3.35
2022-08-08T14:30:56.008Z,3.47
2022-08-08T14:37:59.845Z,3.20
2022-08-08T14:45:00.340Z,3.42
2022-08-08T14:51:53.432Z,3.03
2022-08-08T14:58:39.509Z,3.75
2022-08-08T15:05:34.020Z,3.30
2022-08-08T15:12:32.550Z,3.63
2022-08-08T15:19:18.061Z,3.15
2022-08-08T15:26:06.761Z,3.47
2022-08-08T15:32:58.033Z,3.30
2022-08-08T15:39:43.813Z,3.20
2022-08-08T15:46:34.789Z,3.20
2022-08-08T15:53:23.853Z,4.03
2022-08-08T16:00:26.654Z,3.60
2022-08-08T16:07:13.877Z,3.55
2022-08-08T16:14:02.237Z,3.45
2022-08-08T16:20:51.029Z,3.40
2022-08-08T16:27:38.962Z,3.35
2022-08-08T16:34:28.643Z,2.90
2022-08-08T16:41:20.067Z,3.13
2022-08-08T16:48:06.604Z,3.50
2022-08-08T16:55:06.024Z,3.13
2022-08-08T17:02:00.853Z,3.30
2022-08-08T17:08:47.872Z,3.20
2022-08-08T17:15:52.678Z,3.47
2022-08-08T17:29:28.074Z,3.28
2022-08-08T17:36:28.695Z,2.90
2022-08-08T17:43:15.473Z,3.53
2022-08-08T17:50:02.918Z,3.65
2022-08-08T17:56:52.593Z,3.20
2022-08-08T18:03:38.539Z,2.90
2022-08-08T18:10:31.367Z,3.47
2022-08-08T18:18:04.804Z,3.42
2022-08-08T18:24:30.234Z,3.13
2022-08-08T18:31:16.031Z,3.42
2022-08-08T18:38:17.347Z,3.08
2022-08-08T18:45:09.102Z,3.53
2022-08-08T18:52:18.153Z,3.15
2022-08-08T18:59:07.457Z,3.57
2022-08-08T19:05:53.051Z,3.38
2022-08-08T19:12:39.544Z,3.50
2022-08-08T19:19:33.155Z,4.00
2022-08-08T19:26:29.156Z,3.63
2022-08-08T19:33:17.204Z,3.63
2022-08-08T19:40:16.604Z,3.80
2022-08-08T19:47:04.279Z,3.10
2022-08-08T19:53:54.379Z,3.53
2022-08-08T20:00:43.571Z,3.63
2022-08-08T20:08:37.399Z,3.70
2022-08-08T20:14:41.902Z,3.80
2022-08-08T20:21:31.954Z,3.60
2022-08-08T20:28:25.339Z,3.65
2022-08-08T20:35:17.968Z,3.47
2022-08-08T20:42:11.228Z,3.83
2022-08-08T20:49:00.013Z,3.55
2022-08-08T20:55:51.165Z,3.75
2022-08-08T21:02:39.603Z,3.80
2022-08-08T21:09:31.800Z,4.00
2022-08-08T21:16:35.111Z,3.60
2022-08-08T21:24:02.384Z,3.60
2022-08-08T21:30:30.267Z,4.25
2022-08-08T21:37:18.998Z,4.38
2022-08-08T21:44:07.871Z,3.80
2022-08-08T21:50:53.509Z,3.75
2022-08-08T21:57:42.842Z,3.60
2022-08-08T22:04:31.412Z,3.80
2022-08-08T22:11:51.257Z,3.60
2022-08-08T22:18:22.769Z,3.97
2022-08-08T22:25:24.712Z,4.07
2022-08-08T22:32:11.341Z,4.47
2022-08-08T22:38:56.908Z,3.80
2022-08-08T22:45:46.642Z,4.07
2022-08-08T22:52:38.803Z,3.83
2022-08-08T22:59:58.890Z,4.50
2022-08-08T23:06:47.967Z,4.03
2022-08-08T23:13:53.857Z,4.10
2022-08-08T23:20:54.451Z,4.20
2022-08-08T23:27:46.335Z,4.38
2022-08-08T23:34:32.436Z,4.20
2022-08-08T23:41:24.716Z,4.57
2022-08-08T23:49:02.528Z,4.00
2022-08-08T23:55:22.405Z,4.00
